sensor_id;sensor_type;location;lat;lon;timestamp;temperature;humidity
2729;DHT22;1372;47.956;7.830;2023-11-22T00:00:56;8.80;99.90
2729;DHT22;1372;47.956;7.830;2023-11-22T00:03:25;8.90;99.90
2729;DHT22;1372;47.956;7.830;2023-11-22T00:05:56;8.90;99.90
2729;DHT22;1372;47.956;7.830;2023-11-22T00:08:27;8.90;99.90
2729;DHT22;1372;47.956;7.830;2023-11-22T00:10:57;8.90;99.90
2729;DHT22;1372;47.956;7.830;2023-11-22T00:13:26;8.80;99.90
2729;DHT22;1372;47.956;7.830;2023-11-22T00:15:55;8.80;99.90
2729;DHT22;1372;47.956;7.830;2023-11-22T00:18:24;8.80;99.90
2729;DHT22;1372;47.956;7.830;2023-11-22T00:20:57;8.90;99.90
2729;DHT22;1372;47.956;7.830;2023-11-22T00:23:26;8.80;99.90
2729;DHT22;1372;47.956;7.830;2023-11-22T00:25:57;8.80;99.90
2729;DHT22;1372;47.956;7.830;2023-11-22T00:28:26;8.80;99.90
2729;DHT22;1372;47.956;7.830;2023-11-22T00:30:55;8.80;99.90
2729;DHT22;1372;47.956;7.830;2023-11-22T00:33:24;8.80;99.90
2729;DHT22;1372;47.956;7.830;2023-11-22T00:35:56;8.80;99.90
2729;DHT22;1372;47.956;7.830;2023-11-22T00:38:26;8.70;99.90
2729;DHT22;1372;47.956;7.830;2023-11-22T00:40:55;8.80;99.90
2729;DHT22;1372;47.956;7.830;2023-11-22T00:43:24;8.70;99.90
2729;DHT22;1372;47.956;7.830;2023-11-22T00:45:53;8.60;99.90
2729;DHT22;1372;47.956;7.830;2023-11-22T00:48:24;8.60;99.90
2729;DHT22;1372;47.956;7.830;2023-11-22T00:50:53;8.70;99.90
2729;DHT22;1372;47.956;7.830;2023-11-22T00:53:23;8.80;99.90
2729;DHT22;1372;47.956;7.830;2023-11-22T00:55:52;8.80;99.90
2729;DHT22;1372;47.956;7.830;2023-11-22T00:58:21;8.80;99.90
2729;DHT22;1372;47.956;7.830;2023-11-22T01:00:52;8.80;99.90
2729;DHT22;1372;47.956;7.830;2023-11-22T01:03:21;8.80;99.90
2729;DHT22;1372;47.956;7.830;2023-11-22T01:05:51;8.80;99.90
2729;DHT22;1372;47.956;7.830;2023-11-22T01:08:20;8.80;99.90
2729;DHT22;1372;47.956;7.830;2023-11-22T01:10:50;8.80;99.90
2729;DHT22;1372;47.956;7.830;2023-11-22T01:13:19;8.70;99.90
2729;DHT22;1372;47.956;7.830;2023-11-22T01:15:49;8.60;99.90
2729;DHT22;1372;47.956;7.830;2023-11-22T01:18:19;8.60;99.90
2729;DHT22;1372;47.956;7.830;2023-11-22T01:20:47;8.70;99.90
2729;DHT22;1372;47.956;7.830;2023-11-22T01:23:16;8.70;99.90
2729;DHT22;1372;47.956;7.830;2023-11-22T01:25:45;8.80;99.90
2729;DHT22;1372;47.956;7.830;2023-11-22T01:28:15;8.80;99.90
2729;DHT22;1372;47.956;7.830;2023-11-22T01:30:45;8.80;99.90
2729;DHT22;1372;47.956;7.830;2023-11-22T01:33:16;8.80;99.90
2729;DHT22;1372;47.956;7.830;2023-11-22T01:35:45;8.90;99.90
2729;DHT22;1372;47.956;7.830;2023-11-22T01:38:14;8.90;99.90
2729;DHT22;1372;47.956;7.830;2023-11-22T01:40:47;8.90;99.90
2729;DHT22;1372;47.956;7.830;2023-11-22T01:43:19;8.70;99.90
2729;DHT22;1372;47.956;7.830;2023-11-22T01:45:51;8.70;99.90
2729;DHT22;1372;47.956;7.830;2023-11-22T01:48:21;8.70;99.90
2729;DHT22;1372;47.956;7.830;2023-11-22T01:50:51;8.80;99.90
2729;DHT22;1372;47.956;7.830;2023-11-22T01:53:23;8.70;99.90
2729;DHT22;1372;47.956;7.830;2023-11-22T01:55:53;8.70;99.90
2729;DHT22;1372;47.956;7.830;2023-11-22T01:58:25;8.80;99.90
2729;DHT22;1372;47.956;7.830;2023-11-22T02:00:54;8.80;99.90
2729;DHT22;1372;47.956;7.830;2023-11-22T02:03:23;8.80;99.90
2729;DHT22;1372;47.956;7.830;2023-11-22T02:05:52;8.70;99.90
2729;DHT22;1372;47.956;7.830;2023-11-22T02:08:24;8.80;99.90
2729;DHT22;1372;47.956;7.830;2023-11-22T02:10:59;8.70;99.90
2729;DHT22;1372;47.956;7.830;2023-11-22T02:13:31;8.70;99.90
2729;DHT22;1372;47.956;7.830;2023-11-22T02:16:00;8.60;99.90
2729;DHT22;1372;47.956;7.830;2023-11-22T02:18:29;8.60;99.90
2729;DHT22;1372;47.956;7.830;2023-11-22T02:21:00;8.60;99.90
2729;DHT22;1372;47.956;7.830;2023-11-22T02:23:31;8.60;99.90
2729;DHT22;1372;47.956;7.830;2023-11-22T02:25:59;8.60;99.90
2729;DHT22;1372;47.956;7.830;2023-11-22T02:28:29;8.60;99.90
2729;DHT22;1372;47.956;7.830;2023-11-22T02:30:58;8.70;99.90
2729;DHT22;1372;47.956;7.830;2023-11-22T02:33:27;8.60;99.90
2729;DHT22;1372;47.956;7.830;2023-11-22T02:35:56;8.70;99.90
2729;DHT22;1372;47.956;7.830;2023-11-22T02:38:28;8.70;99.90
2729;DHT22;1372;47.956;7.830;2023-11-22T02:40:58;8.70;99.90
2729;DHT22;1372;47.956;7.830;2023-11-22T02:43:27;8.60;99.90
2729;DHT22;1372;47.956;7.830;2023-11-22T02:45:56;8.60;99.90
2729;DHT22;1372;47.956;7.830;2023-11-22T02:48:25;8.50;99.90
2729;DHT22;1372;47.956;7.830;2023-11-22T02:50:54;8.60;99.90
2729;DHT22;1372;47.956;7.830;2023-11-22T02:53:22;8.60;99.90
2729;DHT22;1372;47.956;7.830;2023-11-22T02:55:51;8.60;99.90
2729;DHT22;1372;47.956;7.830;2023-11-22T02:58:24;8.40;99.90
2729;DHT22;1372;47.956;7.830;2023-11-22T03:00:53;8.40;99.90
2729;DHT22;1372;47.956;7.830;2023-11-22T03:03:24;8.40;99.90
2729;DHT22;1372;47.956;7.830;2023-11-22T03:05:53;8.40;99.90
2729;DHT22;1372;47.956;7.830;2023-11-22T03:08:24;8.50;99.90
2729;DHT22;1372;47.956;7.830;2023-11-22T03:10:53;8.50;99.90
2729;DHT22;1372;47.956;7.830;2023-11-22T03:13:23;8.40;99.90
2729;DHT22;1372;47.956;7.830;2023-11-22T03:15:52;8.20;99.90
2729;DHT22;1372;47.956;7.830;2023-11-22T03:18:21;8.20;99.90
2729;DHT22;1372;47.956;7.830;2023-11-22T03:20:49;8.20;99.90
2729;DHT22;1372;47.956;7.830;2023-11-22T03:23:23;8.20;99.90
2729;DHT22;1372;47.956;7.830;2023-11-22T03:25:53;8.20;99.90
2729;DHT22;1372;47.956;7.830;2023-11-22T03:28:22;8.10;99.90
2729;DHT22;1372;47.956;7.830;2023-11-22T03:30:52;8.00;99.90
2729;DHT22;1372;47.956;7.830;2023-11-22T03:33:23;8.00;99.90
2729;DHT22;1372;47.956;7.830;2023-11-22T03:35:52;7.70;99.90
2729;DHT22;1372;47.956;7.830;2023-11-22T03:38:20;7.70;99.90
2729;DHT22;1372;47.956;7.830;2023-11-22T03:40:51;7.80;99.90
2729;DHT22;1372;47.956;7.830;2023-11-22T03:43:20;7.80;99.90
2729;DHT22;1372;47.956;7.830;2023-11-22T03:45:50;7.60;99.90
2729;DHT22;1372;47.956;7.830;2023-11-22T03:48:19;7.60;99.90
2729;DHT22;1372;47.956;7.830;2023-11-22T03:50:51;7.30;99.90
2729;DHT22;1372;47.956;7.830;2023-11-22T03:53:23;7.30;99.90
2729;DHT22;1372;47.956;7.830;2023-11-22T03:55:52;7.50;99.90
2729;DHT22;1372;47.956;7.830;2023-11-22T03:58:21;7.40;99.90
2729;DHT22;1372;47.956;7.830;2023-11-22T04:00:51;7.40;99.90
2729;DHT22;1372;47.956;7.830;2023-11-22T04:03:20;7.40;99.90
2729;DHT22;1372;47.956;7.830;2023-11-22T04:05:50;7.30;99.90
2729;DHT22;1372;47.956;7.830;2023-11-22T04:08:18;7.30;99.90
2729;DHT22;1372;47.956;7.830;2023-11-22T04:10:47;7.20;99.90
2729;DHT22;1372;47.956;7.830;2023-11-22T04:13:16;7.10;99.90
2729;DHT22;1372;47.956;7.830;2023-11-22T04:15:45;6.90;99.90
2729;DHT22;1372;47.956;7.830;2023-11-22T04:18:18;6.80;99.90
2729;DHT22;1372;47.956;7.830;2023-11-22T04:20:46;6.80;99.90
2729;DHT22;1372;47.956;7.830;2023-11-22T04:23:15;6.70;99.90
2729;DHT22;1372;47.956;7.830;2023-11-22T04:25:44;6.60;99.90
2729;DHT22;1372;47.956;7.830;2023-11-22T04:28:13;6.70;99.90
2729;DHT22;1372;47.956;7.830;2023-11-22T04:30:44;6.70;99.90
2729;DHT22;1372;47.956;7.830;2023-11-22T04:33:13;6.50;99.90
2729;DHT22;1372;47.956;7.830;2023-11-22T04:35:44;6.50;99.90
2729;DHT22;1372;47.956;7.830;2023-11-22T04:38:13;6.30;99.90
2729;DHT22;1372;47.956;7.830;2023-11-22T04:40:42;6.40;99.90
2729;DHT22;1372;47.956;7.830;2023-11-22T04:43:11;6.40;99.90
2729;DHT22;1372;47.956;7.830;2023-11-22T04:45:40;6.30;99.90
2729;DHT22;1372;47.956;7.830;2023-11-22T04:48:09;6.30;99.90
2729;DHT22;1372;47.956;7.830;2023-11-22T04:50:38;6.40;99.90
2729;DHT22;1372;47.956;7.830;2023-11-22T04:53:09;6.30;99.90
2729;DHT22;1372;47.956;7.830;2023-11-22T04:55:40;6.30;99.90
2729;DHT22;1372;47.956;7.830;2023-11-22T04:58:13;6.10;99.90
2729;DHT22;1372;47.956;7.830;2023-11-22T05:00:44;6.20;99.90
2729;DHT22;1372;47.956;7.830;2023-11-22T05:03:14;6.30;99.90
2729;DHT22;1372;47.956;7.830;2023-11-22T05:05:43;6.20;99.90
2729;DHT22;1372;47.956;7.830;2023-11-22T05:08:13;6.10;99.90
2729;DHT22;1372;47.956;7.830;2023-11-22T05:10:43;6.20;99.90
2729;DHT22;1372;47.956;7.830;2023-11-22T05:13:12;6.30;99.90
2729;DHT22;1372;47.956;7.830;2023-11-22T05:15:41;6.30;99.90
2729;DHT22;1372;47.956;7.830;2023-11-22T05:18:10;6.30;99.90
2729;DHT22;1372;47.956;7.830;2023-11-22T05:20:41;6.30;99.90
2729;DHT22;1372;47.956;7.830;2023-11-22T05:23:12;6.40;99.90
2729;DHT22;1372;47.956;7.830;2023-11-22T05:25:42;6.30;99.90
2729;DHT22;1372;47.956;7.830;2023-11-22T05:28:11;6.20;99.90
2729;DHT22;1372;47.956;7.830;2023-11-22T05:30:41;6.30;99.90
2729;DHT22;1372;47.956;7.830;2023-11-22T05:33:09;6.20;99.90
2729;DHT22;1372;47.956;7.830;2023-11-22T05:35:43;6.20;99.90
2729;DHT22;1372;47.956;7.830;2023-11-22T05:38:13;6.10;99.90
2729;DHT22;1372;47.956;7.830;2023-11-22T05:40:42;6.00;99.90
2729;DHT22;1372;47.956;7.830;2023-11-22T05:43:11;6.00;99.90
2729;DHT22;1372;47.956;7.830;2023-11-22T05:45:42;6.00;99.90
2729;DHT22;1372;47.956;7.830;2023-11-22T05:48:17;5.80;99.90
2729;DHT22;1372;47.956;7.830;2023-11-22T05:50:46;5.90;99.90
2729;DHT22;1372;47.956;7.830;2023-11-22T05:53:17;6.00;99.90
2729;DHT22;1372;47.956;7.830;2023-11-22T05:55:47;6.00;99.90
2729;DHT22;1372;47.956;7.830;2023-11-22T05:58:16;6.10;99.90
2729;DHT22;1372;47.956;7.830;2023-11-22T06:00:46;6.00;99.90
2729;DHT22;1372;47.956;7.830;2023-11-22T06:03:15;6.20;99.90
2729;DHT22;1372;47.956;7.830;2023-11-22T06:05:47;6.10;99.90
2729;DHT22;1372;47.956;7.830;2023-11-22T06:08:17;6.00;99.90
2729;DHT22;1372;47.956;7.830;2023-11-22T06:10:46;5.80;99.90
2729;DHT22;1372;47.956;7.830;2023-11-22T06:13:15;5.80;99.90
2729;DHT22;1372;47.956;7.830;2023-11-22T06:15:44;5.70;99.90
2729;DHT22;1372;47.956;7.830;2023-11-22T06:18:13;5.70;99.90
2729;DHT22;1372;47.956;7.830;2023-11-22T06:20:43;5.70;99.90
2729;DHT22;1372;47.956;7.830;2023-11-22T06:23:11;5.80;99.90
2729;DHT22;1372;47.956;7.830;2023-11-22T06:25:42;5.80;99.90
2729;DHT22;1372;47.956;7.830;2023-11-22T06:28:13;5.70;99.90
2729;DHT22;1372;47.956;7.830;2023-11-22T06:30:42;5.70;99.90
2729;DHT22;1372;47.956;7.830;2023-11-22T06:33:11;5.50;99.90
2729;DHT22;1372;47.956;7.830;2023-11-22T06:35:40;5.50;99.90
2729;DHT22;1372;47.956;7.830;2023-11-22T06:38:10;5.40;99.90
2729;DHT22;1372;47.956;7.830;2023-11-22T06:40:42;5.40;99.90
2729;DHT22;1372;47.956;7.830;2023-11-22T06:43:13;5.60;99.90
2729;DHT22;1372;47.956;7.830;2023-11-22T06:45:42;5.50;99.90
2729;DHT22;1372;47.956;7.830;2023-11-22T06:48:12;5.70;99.90
2729;DHT22;1372;47.956;7.830;2023-11-22T06:50:40;5.70;99.90
2729;DHT22;1372;47.956;7.830;2023-11-22T06:53:10;5.70;99.90
2729;DHT22;1372;47.956;7.830;2023-11-22T06:55:39;5.60;99.90
2729;DHT22;1372;47.956;7.830;2023-11-22T06:58:09;5.60;99.90
2729;DHT22;1372;47.956;7.830;2023-11-22T07:00:40;5.40;99.90
2729;DHT22;1372;47.956;7.830;2023-11-22T07:03:09;5.50;99.90
2729;DHT22;1372;47.956;7.830;2023-11-22T07:05:42;5.50;99.90
2729;DHT22;1372;47.956;7.830;2023-11-22T07:08:11;5.40;99.90
2729;DHT22;1372;47.956;7.830;2023-11-22T07:10:43;5.50;99.90
2729;DHT22;1372;47.956;7.830;2023-11-22T07:13:14;5.60;99.90
2729;DHT22;1372;47.956;7.830;2023-11-22T07:15:42;5.60;99.90
2729;DHT22;1372;47.956;7.830;2023-11-22T07:18:11;5.50;99.90
2729;DHT22;1372;47.956;7.830;2023-11-22T07:20:41;5.50;99.90
2729;DHT22;1372;47.956;7.830;2023-11-22T07:23:10;5.60;99.90
2729;DHT22;1372;47.956;7.830;2023-11-22T07:25:40;5.60;99.90
2729;DHT22;1372;47.956;7.830;2023-11-22T07:28:11;5.50;99.90
2729;DHT22;1372;47.956;7.830;2023-11-22T07:30:41;5.40;99.90
2729;DHT22;1372;47.956;7.830;2023-11-22T07:33:10;5.50;99.90
2729;DHT22;1372;47.956;7.830;2023-11-22T07:35:39;5.40;99.90
2729;DHT22;1372;47.956;7.830;2023-11-22T07:38:08;5.30;99.90
2729;DHT22;1372;47.956;7.830;2023-11-22T07:40:38;5.40;99.90
2729;DHT22;1372;47.956;7.830;2023-11-22T07:43:09;5.40;99.90
2729;DHT22;1372;47.956;7.830;2023-11-22T07:45:38;5.30;99.90
2729;DHT22;1372;47.956;7.830;2023-11-22T07:48:12;5.20;99.90
2729;DHT22;1372;47.956;7.830;2023-11-22T07:50:42;5.10;99.90
2729;DHT22;1372;47.956;7.830;2023-11-22T07:53:14;5.10;99.90
2729;DHT22;1372;47.956;7.830;2023-11-22T07:55:44;5.00;99.90
2729;DHT22;1372;47.956;7.830;2023-11-22T07:58:16;5.00;99.90
2729;DHT22;1372;47.956;7.830;2023-11-22T08:00:46;5.10;99.90
2729;DHT22;1372;47.956;7.830;2023-11-22T08:03:15;4.80;99.90
2729;DHT22;1372;47.956;7.830;2023-11-22T08:05:51;4.70;99.90
2729;DHT22;1372;47.956;7.830;2023-11-22T08:08:21;4.60;99.90
2729;DHT22;1372;47.956;7.830;2023-11-22T08:10:52;4.80;99.90
2729;DHT22;1372;47.956;7.830;2023-11-22T08:13:23;4.90;99.90
2729;DHT22;1372;47.956;7.830;2023-11-22T08:15:54;4.90;99.90
2729;DHT22;1372;47.956;7.830;2023-11-22T08:18:23;4.60;99.90
2729;DHT22;1372;47.956;7.830;2023-11-22T08:20:52;4.60;99.90
2729;DHT22;1372;47.956;7.830;2023-11-22T08:23:21;4.60;99.90
2729;DHT22;1372;47.956;7.830;2023-11-22T08:25:49;4.70;99.90
2729;DHT22;1372;47.956;7.830;2023-11-22T08:28:18;4.70;99.90
2729;DHT22;1372;47.956;7.830;2023-11-22T08:30:47;4.50;99.90
2729;DHT22;1372;47.956;7.830;2023-11-22T08:33:17;4.30;99.90
2729;DHT22;1372;47.956;7.830;2023-11-22T08:35:46;4.40;99.90
2729;DHT22;1372;47.956;7.830;2023-11-22T08:38:19;4.50;99.90
2729;DHT22;1372;47.956;7.830;2023-11-22T08:40:48;4.50;99.90
2729;DHT22;1372;47.956;7.830;2023-11-22T08:43:17;4.70;99.90
2729;DHT22;1372;47.956;7.830;2023-11-22T08:45:50;4.50;99.90
2729;DHT22;1372;47.956;7.830;2023-11-22T08:48:27;4.50;99.90
2729;DHT22;1372;47.956;7.830;2023-11-22T08:50:57;4.70;99.90
2729;DHT22;1372;47.956;7.830;2023-11-22T08:53:25;4.70;99.90
2729;DHT22;1372;47.956;7.830;2023-11-22T08:55:55;4.70;99.90
2729;DHT22;1372;47.956;7.830;2023-11-22T08:58:24;4.70;99.90
2729;DHT22;1372;47.956;7.830;2023-11-22T09:00:52;4.70;99.90
2729;DHT22;1372;47.956;7.830;2023-11-22T09:03:25;4.80;99.90
2729;DHT22;1372;47.956;7.830;2023-11-22T09:05:55;4.70;99.90
2729;DHT22;1372;47.956;7.830;2023-11-22T09:08:24;4.60;99.90
2729;DHT22;1372;47.956;7.830;2023-11-22T09:10:54;4.60;99.90
2729;DHT22;1372;47.956;7.830;2023-11-22T09:13:23;4.70;99.90
2729;DHT22;1372;47.956;7.830;2023-11-22T09:15:52;4.80;99.90
2729;DHT22;1372;47.956;7.830;2023-11-22T09:18:21;4.90;99.90
2729;DHT22;1372;47.956;7.830;2023-11-22T09:20:50;4.90;99.90
2729;DHT22;1372;47.956;7.830;2023-11-22T09:23:21;4.90;99.90
2729;DHT22;1372;47.956;7.830;2023-11-22T09:25:52;4.70;99.90
2729;DHT22;1372;47.956;7.830;2023-11-22T09:28:22;4.60;99.90
2729;DHT22;1372;47.956;7.830;2023-11-22T09:30:50;4.60;99.90
2729;DHT22;1372;47.956;7.830;2023-11-22T09:33:20;4.50;99.90
2729;DHT22;1372;47.956;7.830;2023-11-22T09:35:51;4.70;99.90
2729;DHT22;1372;47.956;7.830;2023-11-22T09:38:27;4.70;99.90
2729;DHT22;1372;47.956;7.830;2023-11-22T09:40:56;4.70;99.90
2729;DHT22;1372;47.956;7.830;2023-11-22T09:43:29;4.70;99.90
2729;DHT22;1372;47.956;7.830;2023-11-22T09:45:58;4.80;99.90
2729;DHT22;1372;47.956;7.830;2023-11-22T09:48:30;4.90;99.90
2729;DHT22;1372;47.956;7.830;2023-11-22T09:51:04;5.10;99.90
2729;DHT22;1372;47.956;7.830;2023-11-22T09:53:42;4.90;99.90
2729;DHT22;1372;47.956;7.830;2023-11-22T09:56:16;4.80;99.90
2729;DHT22;1372;47.956;7.830;2023-11-22T09:58:51;4.70;99.90
2729;DHT22;1372;47.956;7.830;2023-11-22T10:01:27;4.70;99.90
2729;DHT22;1372;47.956;7.830;2023-11-22T10:03:58;4.90;99.90
2729;DHT22;1372;47.956;7.830;2023-11-22T10:06:28;5.00;99.90
2729;DHT22;1372;47.956;7.830;2023-11-22T10:09:03;5.00;99.90
2729;DHT22;1372;47.956;7.830;2023-11-22T10:11:36;5.00;99.90
2729;DHT22;1372;47.956;7.830;2023-11-22T10:14:07;4.90;99.90
2729;DHT22;1372;47.956;7.830;2023-11-22T10:16:36;4.80;99.90
2729;DHT22;1372;47.956;7.830;2023-11-22T10:19:06;4.80;99.90
2729;DHT22;1372;47.956;7.830;2023-11-22T10:21:35;4.90;99.90
2729;DHT22;1372;47.956;7.830;2023-11-22T10:24:09;4.80;99.90
2729;DHT22;1372;47.956;7.830;2023-11-22T10:26:40;4.90;99.90
2729;DHT22;1372;47.956;7.830;2023-11-22T10:29:13;4.70;99.90
2729;DHT22;1372;47.956;7.830;2023-11-22T10:31:41;4.80;99.90
2729;DHT22;1372;47.956;7.830;2023-11-22T10:34:10;4.80;99.90
2729;DHT22;1372;47.956;7.830;2023-11-22T10:36:40;4.80;99.90
2729;DHT22;1372;47.956;7.830;2023-11-22T10:39:12;4.90;99.90
2729;DHT22;1372;47.956;7.830;2023-11-22T10:41:45;4.80;99.90
2729;DHT22;1372;47.956;7.830;2023-11-22T10:44:15;4.80;99.90
2729;DHT22;1372;47.956;7.830;2023-11-22T10:46:45;4.90;99.90
2729;DHT22;1372;47.956;7.830;2023-11-22T10:49:14;5.00;99.90
2729;DHT22;1372;47.956;7.830;2023-11-22T10:51:46;5.00;99.90
2729;DHT22;1372;47.956;7.830;2023-11-22T10:54:22;5.00;99.90
2729;DHT22;1372;47.956;7.830;2023-11-22T10:56:57;4.80;99.90
2729;DHT22;1372;47.956;7.830;2023-11-22T10:59:30;4.90;99.90
2729;DHT22;1372;47.956;7.830;2023-11-22T11:02:01;5.00;99.90
2729;DHT22;1372;47.956;7.830;2023-11-22T11:04:44;5.20;99.90
2729;DHT22;1372;47.956;7.830;2023-11-22T11:07:17;5.20;99.90
2729;DHT22;1372;47.956;7.830;2023-11-22T11:09:54;5.00;99.90
2729;DHT22;1372;47.956;7.830;2023-11-22T11:12:33;5.00;99.90
2729;DHT22;1372;47.956;7.830;2023-11-22T11:15:04;5.00;99.90
2729;DHT22;1372;47.956;7.830;2023-11-22T11:17:35;5.10;99.90
2729;DHT22;1372;47.956;7.830;2023-11-22T11:20:05;5.00;99.90
2729;DHT22;1372;47.956;7.830;2023-11-22T11:22:34;4.90;99.90
2729;DHT22;1372;47.956;7.830;2023-11-22T11:25:15;4.90;99.90
2729;DHT22;1372;47.956;7.830;2023-11-22T11:27:55;5.10;99.90
2729;DHT22;1372;47.956;7.830;2023-11-22T11:30:50;5.00;99.90
2729;DHT22;1372;47.956;7.830;2023-11-22T11:33:27;4.90;99.90
2729;DHT22;1372;47.956;7.830;2023-11-22T11:36:02;5.10;99.90
2729;DHT22;1372;47.956;7.830;2023-11-22T11:38:35;5.10;99.90
2729;DHT22;1372;47.956;7.830;2023-11-22T11:41:10;5.00;99.90
2729;DHT22;1372;47.956;7.830;2023-11-22T11:43:42;5.00;99.90
2729;DHT22;1372;47.956;7.830;2023-11-22T11:46:13;5.00;99.90
2729;DHT22;1372;47.956;7.830;2023-11-22T11:48:43;4.90;99.90
2729;DHT22;1372;47.956;7.830;2023-11-22T11:51:14;5.00;99.90
2729;DHT22;1372;47.956;7.830;2023-11-22T11:53:44;4.80;99.90
2729;DHT22;1372;47.956;7.830;2023-11-22T11:56:16;4.90;99.90
2729;DHT22;1372;47.956;7.830;2023-11-22T11:58:47;4.90;99.90
2729;DHT22;1372;47.956;7.830;2023-11-22T12:01:20;4.90;99.90
2729;DHT22;1372;47.956;7.830;2023-11-22T12:03:50;4.90;99.90
2729;DHT22;1372;47.956;7.830;2023-11-22T12:06:20;4.90;99.90
2729;DHT22;1372;47.956;7.830;2023-11-22T12:08:49;4.90;99.90
2729;DHT22;1372;47.956;7.830;2023-11-22T12:11:19;5.00;99.90
2729;DHT22;1372;47.956;7.830;2023-11-22T12:13:50;4.80;99.90
2729;DHT22;1372;47.956;7.830;2023-11-22T12:16:23;4.90;99.90
2729;DHT22;1372;47.956;7.830;2023-11-22T12:18:51;4.70;99.90
2729;DHT22;1372;47.956;7.830;2023-11-22T12:21:20;4.60;99.90
2729;DHT22;1372;47.956;7.830;2023-11-22T12:23:49;4.60;99.90
2729;DHT22;1372;47.956;7.830;2023-11-22T12:26:21;4.60;99.90
2729;DHT22;1372;47.956;7.830;2023-11-22T12:28:50;4.30;99.90
2729;DHT22;1372;47.956;7.830;2023-11-22T12:31:23;4.40;99.90
2729;DHT22;1372;47.956;7.830;2023-11-22T12:33:59;4.20;99.90
2729;DHT22;1372;47.956;7.830;2023-11-22T12:36:27;4.50;99.90
2729;DHT22;1372;47.956;7.830;2023-11-22T12:38:57;4.60;99.90
2729;DHT22;1372;47.956;7.830;2023-11-22T12:41:28;4.50;99.90
2729;DHT22;1372;47.956;7.830;2023-11-22T12:44:05;4.50;99.90
2729;DHT22;1372;47.956;7.830;2023-11-22T12:46:48;4.60;99.90
2729;DHT22;1372;47.956;7.830;2023-11-22T12:49:24;4.50;99.90
2729;DHT22;1372;47.956;7.830;2023-11-22T12:51:54;4.40;99.90
2729;DHT22;1372;47.956;7.830;2023-11-22T12:54:24;4.60;99.90
2729;DHT22;1372;47.956;7.830;2023-11-22T12:56:55;4.60;99.90
2729;DHT22;1372;47.956;7.830;2023-11-22T12:59:26;4.40;99.90
2729;DHT22;1372;47.956;7.830;2023-11-22T13:01:58;4.50;99.90
2729;DHT22;1372;47.956;7.830;2023-11-22T13:04:28;4.50;99.90
2729;DHT22;1372;47.956;7.830;2023-11-22T13:06:58;4.60;99.90
2729;DHT22;1372;47.956;7.830;2023-11-22T13:09:27;4.70;99.90
2729;DHT22;1372;47.956;7.830;2023-11-22T13:12:00;4.70;99.90
2729;DHT22;1372;47.956;7.830;2023-11-22T13:14:29;4.70;99.90
2729;DHT22;1372;47.956;7.830;2023-11-22T13:17:05;4.70;99.90
2729;DHT22;1372;47.956;7.830;2023-11-22T13:19:35;4.60;99.90
2729;DHT22;1372;47.956;7.830;2023-11-22T13:22:07;4.60;99.90
2729;DHT22;1372;47.956;7.830;2023-11-22T13:24:36;4.40;99.90
2729;DHT22;1372;47.956;7.830;2023-11-22T13:27:11;4.50;99.90
2729;DHT22;1372;47.956;7.830;2023-11-22T13:29:43;4.60;99.90
2729;DHT22;1372;47.956;7.830;2023-11-22T13:32:12;4.60;99.90
2729;DHT22;1372;47.956;7.830;2023-11-22T13:34:41;4.60;99.90
2729;DHT22;1372;47.956;7.830;2023-11-22T13:37:10;4.60;99.90
2729;DHT22;1372;47.956;7.830;2023-11-22T13:39:39;4.50;99.90
2729;DHT22;1372;47.956;7.830;2023-11-22T13:42:09;4.50;99.90
2729;DHT22;1372;47.956;7.830;2023-11-22T13:44:38;4.40;99.90
2729;DHT22;1372;47.956;7.830;2023-11-22T13:47:11;4.60;99.90
2729;DHT22;1372;47.956;7.830;2023-11-22T13:49:41;4.50;99.90
2729;DHT22;1372;47.956;7.830;2023-11-22T13:52:10;4.50;99.90
2729;DHT22;1372;47.956;7.830;2023-11-22T13:54:39;4.40;99.90
2729;DHT22;1372;47.956;7.830;2023-11-22T13:57:08;4.50;99.90
2729;DHT22;1372;47.956;7.830;2023-11-22T13:59:38;4.60;99.90
2729;DHT22;1372;47.956;7.830;2023-11-22T14:02:07;4.70;99.90
2729;DHT22;1372;47.956;7.830;2023-11-22T14:04:37;4.60;99.90
2729;DHT22;1372;47.956;7.830;2023-11-22T14:07:07;4.70;99.90
2729;DHT22;1372;47.956;7.830;2023-11-22T14:09:35;4.70;99.90
2729;DHT22;1372;47.956;7.830;2023-11-22T14:12:07;4.60;99.90
2729;DHT22;1372;47.956;7.830;2023-11-22T14:14:37;4.50;99.90
2729;DHT22;1372;47.956;7.830;2023-11-22T14:17:08;4.60;99.90
2729;DHT22;1372;47.956;7.830;2023-11-22T14:19:37;4.60;99.90
2729;DHT22;1372;47.956;7.830;2023-11-22T14:22:11;4.60;99.90
2729;DHT22;1372;47.956;7.830;2023-11-22T14:24:41;4.50;99.90
2729;DHT22;1372;47.956;7.830;2023-11-22T14:27:12;4.50;99.90
2729;DHT22;1372;47.956;7.830;2023-11-22T14:29:42;4.50;99.90
2729;DHT22;1372;47.956;7.830;2023-11-22T14:32:20;4.60;99.90
2729;DHT22;1372;47.956;7.830;2023-11-22T14:34:55;4.60;99.90
2729;DHT22;1372;47.956;7.830;2023-11-22T14:37:24;4.60;99.90
2729;DHT22;1372;47.956;7.830;2023-11-22T14:39:53;4.70;99.90
2729;DHT22;1372;47.956;7.830;2023-11-22T14:42:22;4.50;99.90
2729;DHT22;1372;47.956;7.830;2023-11-22T14:44:58;4.50;99.90
2729;DHT22;1372;47.956;7.830;2023-11-22T14:47:26;4.40;99.90
2729;DHT22;1372;47.956;7.830;2023-11-22T14:49:58;4.50;99.90
2729;DHT22;1372;47.956;7.830;2023-11-22T14:52:27;4.50;99.90
2729;DHT22;1372;47.956;7.830;2023-11-22T14:55:06;4.50;99.90
2729;DHT22;1372;47.956;7.830;2023-11-22T14:57:43;4.60;99.90
2729;DHT22;1372;47.956;7.830;2023-11-22T15:00:24;4.50;99.90
2729;DHT22;1372;47.956;7.830;2023-11-22T15:02:53;4.50;99.90
2729;DHT22;1372;47.956;7.830;2023-11-22T15:05:23;4.50;99.90
2729;DHT22;1372;47.956;7.830;2023-11-22T15:07:54;4.60;99.90
2729;DHT22;1372;47.956;7.830;2023-11-22T15:10:27;4.50;99.90
2729;DHT22;1372;47.956;7.830;2023-11-22T15:12:56;4.40;99.90
2729;DHT22;1372;47.956;7.830;2023-11-22T15:15:27;4.50;99.90
2729;DHT22;1372;47.956;7.830;2023-11-22T15:17:56;4.50;99.90
2729;DHT22;1372;47.956;7.830;2023-11-22T15:20:25;4.60;99.90
2729;DHT22;1372;47.956;7.830;2023-11-22T15:22:55;4.50;99.90
2729;DHT22;1372;47.956;7.830;2023-11-22T15:25:24;4.50;99.90
2729;DHT22;1372;47.956;7.830;2023-11-22T15:27:53;4.40;99.90
2729;DHT22;1372;47.956;7.830;2023-11-22T15:30:22;4.40;99.90
2729;DHT22;1372;47.956;7.830;2023-11-22T15:32:54;4.40;99.90
2729;DHT22;1372;47.956;7.830;2023-11-22T15:35:23;4.40;99.90
2729;DHT22;1372;47.956;7.830;2023-11-22T15:37:53;4.50;99.90
2729;DHT22;1372;47.956;7.830;2023-11-22T15:40:25;4.50;99.90
2729;DHT22;1372;47.956;7.830;2023-11-22T15:42:54;4.50;99.90
2729;DHT22;1372;47.956;7.830;2023-11-22T15:45:24;4.50;99.90
2729;DHT22;1372;47.956;7.830;2023-11-22T15:47:54;4.50;99.90
2729;DHT22;1372;47.956;7.830;2023-11-22T15:50:25;4.40;99.90
2729;DHT22;1372;47.956;7.830;2023-11-22T15:52:57;4.30;99.90
2729;DHT22;1372;47.956;7.830;2023-11-22T15:55:26;4.30;99.90
2729;DHT22;1372;47.956;7.830;2023-11-22T15:57:58;4.30;99.90
2729;DHT22;1372;47.956;7.830;2023-11-22T16:00:27;4.30;99.90
2729;DHT22;1372;47.956;7.830;2023-11-22T16:02:58;4.30;99.90
2729;DHT22;1372;47.956;7.830;2023-11-22T16:05:27;4.30;99.90
2729;DHT22;1372;47.956;7.830;2023-11-22T16:07:56;4.40;99.90
2729;DHT22;1372;47.956;7.830;2023-11-22T16:10:25;4.40;99.90
2729;DHT22;1372;47.956;7.830;2023-11-22T16:12:54;4.50;99.90
2729;DHT22;1372;47.956;7.830;2023-11-22T16:15:23;4.50;99.90
2729;DHT22;1372;47.956;7.830;2023-11-22T16:17:52;4.40;99.90
2729;DHT22;1372;47.956;7.830;2023-11-22T16:20:25;4.30;99.90
2729;DHT22;1372;47.956;7.830;2023-11-22T16:22:57;4.30;99.90
2729;DHT22;1372;47.956;7.830;2023-11-22T16:25:26;4.40;99.90
2729;DHT22;1372;47.956;7.830;2023-11-22T16:27:55;4.50;99.90
2729;DHT22;1372;47.956;7.830;2023-11-22T16:30:24;4.50;99.90
2729;DHT22;1372;47.956;7.830;2023-11-22T16:32:53;4.40;99.90
2729;DHT22;1372;47.956;7.830;2023-11-22T16:35:25;4.50;99.90
2729;DHT22;1372;47.956;7.830;2023-11-22T16:37:54;4.50;99.90